Time;durP1;ratioP1;P1;durP2;ratioP2;P2;SDS_P1;SDS_P2;PMS_P1;PMS_P2;Temp;Humidity;BMP_temperature;BMP_pressure;BME280_temperature;BME280_humidity;BME280_pressure;Samples;Min_cycle;Max_cycle;Signal;HPM_P1;HPM_P2
2021/06/21 00:01:02;;;;;;;10.77;7.68;;;;;;;15.07;100.00;100842.44;3590764;39;20062;-66
2021/06/21 00:03:28;;;;;;;12.20;7.28;;;;;;;15.15;100.00;100840.72;3591455;39;20060;-65
2021/06/21 00:05:55;;;;;;;14.10;7.68;;;;;;;15.10;100.00;100843.94;3591473;39;20047;-66
2021/06/21 00:08:21;;;;;;;12.57;7.28;;;;;;;15.16;100.00;100837.84;3591473;39;20071;-66
2021/06/21 00:10:49;;;;;;;11.60;6.95;;;;;;;15.10;100.00;100843.09;3591265;39;20033;-67
2021/06/21 00:13:17;;;;;;;10.05;7.25;;;;;;;15.14;100.00;100828.22;3590970;39;20060;-65
2021/06/21 00:15:43;;;;;;;9.80;7.05;;;;;;;15.06;100.00;100818.19;3590099;39;20084;-65
2021/06/21 00:18:12;;;;;;;13.43;7.78;;;;;;;14.97;100.00;100819.19;3592150;39;20318;-66
2021/06/21 00:20:38;;;;;;;12.85;6.97;;;;;;;14.93;100.00;100826.81;3590397;39;20044;-66
2021/06/21 00:23:05;;;;;;;9.93;6.60;;;;;;;14.97;100.00;100816.47;3590515;39;20391;-66
2021/06/21 00:25:31;;;;;;;8.40;6.43;;;;;;;15.01;100.00;100802.41;3590847;39;20049;-66
2021/06/21 00:27:59;;;;;;;13.23;7.10;;;;;;;14.95;100.00;100807.69;3589877;39;20057;-67
2021/06/21 00:30:26;;;;;;;9.13;6.75;;;;;;;14.88;100.00;100796.63;3591472;39;20056;-65
2021/06/21 00:32:52;;;;;;;9.15;6.20;;;;;;;14.82;100.00;100802.72;3590711;39;20068;-65
2021/06/21 00:35:20;;;;;;;11.07;6.57;;;;;;;14.83;100.00;100804.44;3591260;39;20322;-65
2021/06/21 00:37:46;;;;;;;12.85;5.97;;;;;;;14.91;100.00;100801.72;3591617;39;20048;-65
2021/06/21 00:40:15;;;;;;;8.77;6.50;;;;;;;14.96;100.00;100796.66;3590008;39;20056;-65
2021/06/21 00:42:43;;;;;;;12.70;6.53;;;;;;;14.95;100.00;100792.25;3591347;40;20056;-65
2021/06/21 00:45:14;;;;;;;11.15;5.45;;;;;;;14.94;100.00;100779.69;3591457;39;20275;-65
2021/06/21 00:47:41;;;;;;;7.97;5.15;;;;;;;15.00;100.00;100773.63;3591708;40;20049;-66
2021/06/21 00:50:08;;;;;;;13.35;5.80;;;;;;;15.01;100.00;100783.44;3591043;39;20055;-64
2021/06/21 00:52:35;;;;;;;14.75;6.15;;;;;;;15.01;100.00;100775.31;3591597;40;20037;-66
2021/06/21 00:55:01;;;;;;;8.15;5.47;;;;;;;15.04;100.00;100774.97;3591672;39;20080;-66
2021/06/21 00:57:29;;;;;;;8.55;5.45;;;;;;;14.89;100.00;100768.53;3591483;39;20047;-65
2021/06/21 00:59:58;;;;;;;8.23;5.60;;;;;;;14.84;100.00;100768.16;3591011;39;20055;-67
2021/06/21 01:02:27;;;;;;;7.95;5.65;;;;;;;14.84;100.00;100779.00;3591419;39;20053;-66
2021/06/21 01:04:55;;;;;;;12.93;5.80;;;;;;;14.71;100.00;100780.34;3591286;39;20350;-66
2021/06/21 01:07:22;;;;;;;10.40;6.47;;;;;;;14.70;100.00;100761.53;3590901;39;20103;-67
2021/06/21 01:09:50;;;;;;;11.13;5.70;;;;;;;14.73;100.00;100772.03;3591716;39;20044;-65
2021/06/21 01:12:35;;;;;;;10.38;6.60;;;;;;;14.76;100.00;100779.84;3589890;39;20040;-66
2021/06/21 01:15:05;;;;;;;9.77;6.60;;;;;;;14.74;100.00;100781.00;3591979;40;20052;-66
2021/06/21 01:17:36;;;;;;;10.00;6.63;;;;;;;14.76;100.00;100781.72;3591756;39;20036;-65
2021/06/21 01:20:37;;;;;;;10.27;6.60;;;;;;;14.69;100.00;100774.25;3591774;39;20076;-66
2021/06/21 01:23:45;;;;;;;12.75;6.90;;;;;;;14.65;100.00;100781.00;3571955;39;20052;-66
2021/06/21 01:26:17;;;;;;;10.52;7.40;;;;;;;14.71;100.00;100785.75;3586795;39;20315;-65
2021/06/21 01:28:59;;;;;;;15.73;8.40;;;;;;;14.54;100.00;100786.69;3591145;39;20052;-66
2021/06/21 01:31:41;;;;;;;13.48;8.23;;;;;;;14.49;100.00;100775.50;3591770;39;20130;-65
2021/06/21 01:34:09;;;;;;;13.25;8.38;;;;;;;14.45;100.00;100774.97;3591141;39;20051;-65
2021/06/21 01:36:36;;;;;;;14.43;8.80;;;;;;;14.41;100.00;100768.19;3591318;39;20043;-66
2021/06/21 01:39:03;;;;;;;12.48;8.43;;;;;;;14.36;100.00;100771.38;3590896;39;20052;-66
2021/06/21 01:41:33;;;;;;;17.55;8.88;;;;;;;14.40;100.00;100768.34;3590502;40;20090;-65
2021/06/21 01:44:02;;;;;;;14.82;8.73;;;;;;;14.35;100.00;100753.47;3590849;39;20309;-67
2021/06/21 01:46:32;;;;;;;14.18;9.70;;;;;;;14.44;100.00;100758.91;3591389;39;20054;-66
2021/06/21 01:49:03;;;;;;;12.63;9.05;;;;;;;14.43;100.00;100768.03;3591028;39;20068;-66
2021/06/21 01:51:33;;;;;;;13.85;8.95;;;;;;;14.43;100.00;100765.31;3590927;39;20302;-66
2021/06/21 01:54:02;;;;;;;14.02;8.75;;;;;;;14.41;100.00;100761.94;3590823;39;20078;-66
2021/06/21 01:56:32;;;;;;;13.63;9.23;;;;;;;14.43;100.00;100766.19;3590789;39;20038;-66
2021/06/21 01:59:02;;;;;;;20.48;8.95;;;;;;;14.35;100.00;100758.88;3590955;39;20410;-67
2021/06/21 02:01:29;;;;;;;17.38;10.07;;;;;;;14.28;100.00;100765.09;3590272;39;20055;-65
2021/06/21 02:03:59;;;;;;;15.40;9.75;;;;;;;14.29;100.00;100761.38;3590220;39;20041;-65
2021/06/21 02:06:28;;;;;;;15.70;9.30;;;;;;;14.31;100.00;100770.16;3590276;39;20052;-67
2021/06/21 02:08:57;;;;;;;;;;;;;;;14.28;100.00;100774.06;3592187;40;20148;-67
2021/06/21 02:11:26;;;;;;;15.18;9.65;;;;;;;14.35;100.00;100772.41;3590586;39;20293;-65
2021/06/21 02:13:53;;;;;;;13.10;8.98;;;;;;;14.45;100.00;100784.97;3590434;39;20085;-65
2021/06/21 02:16:21;;;;;;;13.77;9.27;;;;;;;14.44;100.00;100780.56;3590132;39;20044;-65
2021/06/21 02:18:49;;;;;;;13.02;9.15;;;;;;;14.40;100.00;100776.47;3591669;39;20036;-64
2021/06/21 02:21:18;;;;;;;11.55;8.43;;;;;;;14.35;100.00;100780.53;3589241;39;20039;-64
2021/06/21 02:23:45;;;;;;;13.63;9.02;;;;;;;14.40;100.00;100788.16;3590657;39;20284;-64
2021/06/21 02:26:14;;;;;;;14.38;9.43;;;;;;;14.44;100.00;100788.69;3590692;39;20362;-65
2021/06/21 02:28:41;;;;;;;13.98;9.10;;;;;;;14.43;100.00;100787.84;3589122;39;20037;-64
2021/06/21 02:31:09;;;;;;;14.93;8.40;;;;;;;14.32;100.00;100788.97;3590606;40;20089;-63
2021/06/21 02:33:36;;;;;;;14.15;8.63;;;;;;;14.28;100.00;100784.91;3589335;39;20433;-64
2021/06/21 02:36:03;;;;;;;14.93;9.98;;;;;;;14.26;100.00;100784.19;3591189;39;20059;-64
2021/06/21 02:38:30;;;;;;;12.30;8.50;;;;;;;14.30;100.00;100782.88;3593069;39;20060;-63
2021/06/21 02:40:56;;;;;;;12.57;8.35;;;;;;;14.30;100.00;100780.16;3592489;39;20042;-62
2021/06/21 02:43:24;;;;;;;15.68;8.55;;;;;;;14.30;100.00;100788.28;3591172;39;20298;-64
2021/06/21 02:45:51;;;;;;;15.23;8.85;;;;;;;14.29;100.00;100786.59;3591830;39;20785;-65
2021/06/21 02:48:18;;;;;;;16.25;9.25;;;;;;;14.30;100.00;100777.47;3590991;39;20380;-64
2021/06/21 02:50:46;;;;;;;13.63;8.68;;;;;;;14.27;100.00;100785.06;3592468;39;20058;-63
2021/06/21 02:53:20;;;;;;;12.73;8.52;;;;;;;14.19;100.00;100777.72;3592076;39;20090;-63
2021/06/21 02:55:50;;;;;;;13.10;9.40;;;;;;;14.18;100.00;100778.78;3592754;39;20055;-64
2021/06/21 02:58:22;;;;;;;14.95;8.55;;;;;;;14.25;100.00;100785.22;3590881;40;20054;-64
2021/06/21 03:00:53;;;;;;;11.10;8.70;;;;;;;14.21;100.00;100778.44;3590396;39;20052;-63
2021/06/21 03:03:22;;;;;;;13.95;9.13;;;;;;;14.23;100.00;100780.97;3591849;39;20077;-63
2021/06/21 03:05:50;;;;;;;14.10;8.10;;;;;;;14.26;100.00;100776.06;3591858;39;20048;-62
2021/06/21 03:08:20;;;;;;;12.20;8.63;;;;;;;14.17;100.00;100777.06;3592122;39;20141;-64
2021/06/21 03:10:48;;;;;;;12.75;9.77;;;;;;;14.10;100.00;100766.03;3592481;39;20074;-64
2021/06/21 03:13:18;;;;;;;13.55;9.25;;;;;;;14.07;100.00;100770.91;3592334;39;20136;-63
2021/06/21 03:15:45;;;;;;;13.95;9.25;;;;;;;14.09;100.00;100766.19;3592232;39;20329;-62
2021/06/21 03:18:14;;;;;;;17.20;9.75;;;;;;;14.09;100.00;100763.47;3591466;39;20056;-62
2021/06/21 03:20:40;;;;;;;18.55;9.27;;;;;;;14.02;100.00;100764.13;3591123;39;20291;-63
2021/06/21 03:23:07;;;;;;;14.88;9.10;;;;;;;14.03;100.00;100765.00;3591762;39;20039;-62
2021/06/21 03:25:36;;;;;;;14.93;9.02;;;;;;;14.08;100.00;100761.81;3591902;39;20060;-64
2021/06/21 03:28:08;;;;;;;13.60;8.80;;;;;;;13.91;100.00;100750.03;3591503;39;20661;-62
2021/06/21 03:30:34;;;;;;;15.93;9.20;;;;;;;13.90;100.00;100746.47;3591318;40;20338;-62
2021/06/21 03:33:01;;;;;;;13.52;9.05;;;;;;;13.87;100.00;100748.66;3591892;39;20071;-62
2021/06/21 03:35:29;;;;;;;17.92;9.32;;;;;;;13.94;100.00;100745.16;3590747;39;20058;-63
2021/06/21 03:37:55;;;;;;;16.67;8.85;;;;;;;13.78;100.00;100751.31;3591923;39;20066;-64
2021/06/21 03:40:22;;;;;;;14.35;8.70;;;;;;;13.79;100.00;100735.94;3591938;39;20302;-63
2021/06/21 03:42:48;;;;;;;15.30;8.30;;;;;;;13.79;100.00;100742.19;3591661;39;20051;-62
2021/06/21 03:45:15;;;;;;;12.95;8.93;;;;;;;13.90;100.00;100727.53;3590879;39;20055;-63
2021/06/21 03:47:42;;;;;;;15.40;9.32;;;;;;;13.85;100.00;100724.47;3590718;39;20383;-62
2021/06/21 03:50:10;;;;;;;12.32;8.80;;;;;;;13.90;100.00;100722.13;3591942;39;20051;-62
2021/06/21 03:52:38;;;;;;;14.38;9.13;;;;;;;13.79;100.00;100725.09;3590900;39;20433;-63
2021/06/21 03:55:09;;;;;;;11.68;8.30;;;;;;;13.76;100.00;100722.72;3592147;39;20348;-62
2021/06/21 03:57:37;;;;;;;15.05;8.25;;;;;;;13.66;100.00;100720.13;3590467;39;20058;-62
2021/06/21 04:00:08;;;;;;;12.63;9.13;;;;;;;13.82;100.00;100725.66;3590347;39;20065;-63
2021/06/21 04:02:34;;;;;;;17.95;8.82;;;;;;;13.90;100.00;100727.53;3591551;40;20039;-62
2021/06/21 04:05:01;;;;;;;17.23;9.45;;;;;;;13.79;100.00;100723.25;3590891;39;20067;-64
2021/06/21 04:07:27;;;;;;;15.05;8.85;;;;;;;13.70;100.00;100726.06;3591426;40;20418;-63
2021/06/21 04:09:55;;;;;;;13.18;9.15;;;;;;;13.65;100.00;100731.97;3591585;39;20059;-62
2021/06/21 04:12:23;;;;;;;14.95;8.73;;;;;;;13.61;100.00;100734.13;3591587;39;20141;-62
2021/06/21 04:14:50;;;;;;;11.75;9.13;;;;;;;13.62;100.00;100737.69;3592006;39;20137;-63
2021/06/21 04:17:27;;;;;;;14.43;8.75;;;;;;;13.56;100.00;100731.06;3619927;22;20083;-63
2021/06/21 04:19:53;;;;;;;16.00;9.43;;;;;;;13.53;100.00;100725.97;3577900;40;20054;-63
2021/06/21 04:22:20;;;;;;;11.38;8.40;;;;;;;13.64;100.00;100723.00;3579777;40;20061;-62
2021/06/21 04:24:46;;;;;;;14.27;9.45;;;;;;;13.73;100.00;100733.88;3578947;40;20053;-64
2021/06/21 04:27:14;;;;;;;13.00;8.75;;;;;;;13.58;100.00;100726.34;3579338;40;20053;-63
2021/06/21 04:29:41;;;;;;;16.67;9.32;;;;;;;13.60;100.00;100726.19;3579409;40;20040;-63
2021/06/21 04:32:08;;;;;;;17.65;9.65;;;;;;;13.59;100.00;100725.34;3580766;40;20408;-64
2021/06/21 04:34:35;;;;;;;14.80;9.57;;;;;;;13.53;100.00;100725.13;3579588;40;20069;-63
2021/06/21 04:37:01;;;;;;;14.10;9.45;;;;;;;13.55;100.00;100723.94;3581256;40;20400;-64
2021/06/21 04:39:28;;;;;;;15.88;9.73;;;;;;;13.62;100.00;100714.19;3578994;40;20072;-63
2021/06/21 04:41:54;;;;;;;14.30;9.43;;;;;;;13.62;100.00;100719.59;3581592;40;20049;-63
2021/06/21 04:44:22;;;;;;;13.25;9.00;;;;;;;13.63;100.00;100720.44;3578706;40;20317;-62
2021/06/21 04:46:48;;;;;;;15.18;9.20;;;;;;;13.64;100.00;100717.56;3572799;40;20056;-62
2021/06/21 04:49:15;;;;;;;12.32;8.38;;;;;;;13.59;100.00;100709.13;3577263;40;20053;-64
2021/06/21 04:51:44;;;;;;;15.05;8.68;;;;;;;13.70;100.00;100715.25;3579814;40;20049;-64
2021/06/21 04:54:11;;;;;;;17.25;9.48;;;;;;;13.64;100.00;100712.16;3579712;40;20065;-63
2021/06/21 04:56:38;;;;;;;13.40;8.10;;;;;;;13.66;100.00;100710.19;3580633;40;20053;-63
2021/06/21 04:59:05;;;;;;;12.45;8.82;;;;;;;13.70;100.00;100701.75;3577879;40;20057;-63
2021/06/21 05:01:33;;;;;;;16.92;9.05;;;;;;;13.62;100.00;100702.53;3580276;40;20057;-65
2021/06/21 05:04:01;;;;;;;13.23;9.02;;;;;;;13.55;100.00;100707.72;3580544;40;20053;-63
2021/06/21 05:06:28;;;;;;;13.10;8.57;;;;;;;13.56;100.00;100704.03;3578688;40;20489;-62
2021/06/21 05:08:55;;;;;;;17.05;9.40;;;;;;;13.70;100.00;100699.88;3580855;40;20044;-62
2021/06/21 05:11:21;;;;;;;14.10;8.77;;;;;;;13.67;100.00;100692.91;3580158;40;20048;-64
2021/06/21 05:13:49;;;;;;;12.77;8.90;;;;;;;13.56;100.00;100687.81;3580722;40;20060;-63
2021/06/21 05:16:16;;;;;;;11.45;8.40;;;;;;;13.55;100.00;100691.50;3579708;40;20096;-63
2021/06/21 05:18:44;;;;;;;12.20;7.70;;;;;;;13.46;100.00;100706.00;3576758;40;20045;-62
2021/06/21 05:21:10;;;;;;;13.80;9.13;;;;;;;13.48;100.00;100698.56;3580076;40;20059;-63
2021/06/21 05:23:37;;;;;;;11.40;8.00;;;;;;;13.48;100.00;100695.84;3577512;40;20048;-62
2021/06/21 05:26:03;;;;;;;11.90;8.70;;;;;;;13.53;100.00;100706.19;3581044;40;20059;-62
2021/06/21 05:28:30;;;;;;;13.45;7.85;;;;;;;13.47;100.00;100707.66;3580227;40;20100;-62
2021/06/21 05:30:56;;;;;;;10.85;7.18;;;;;;;13.47;100.00;100697.72;3579747;40;20048;-61
2021/06/21 05:33:23;;;;;;;13.60;7.82;;;;;;;13.52;100.00;100708.06;3575775;40;20104;-62
2021/06/21 05:35:50;;;;;;;10.27;6.75;;;;;;;13.44;100.00;100699.88;3579527;40;20048;-61
2021/06/21 05:38:17;;;;;;;8.10;6.32;;;;;;;13.44;100.00;100702.56;3579890;40;20051;-61
2021/06/21 05:40:43;;;;;;;11.48;7.60;;;;;;;13.39;100.00;100704.91;3578581;40;20044;-62
2021/06/21 05:43:10;;;;;;;10.88;7.07;;;;;;;13.42;100.00;100707.31;3579241;40;20033;-62
2021/06/21 05:45:36;;;;;;;9.75;7.35;;;;;;;13.46;100.00;100697.88;3580362;40;20048;-61
2021/06/21 05:48:04;;;;;;;13.07;8.10;;;;;;;13.41;100.00;100700.19;3580498;40;20052;-62
2021/06/21 05:50:30;;;;;;;11.05;7.60;;;;;;;13.46;100.00;100693.31;3581116;40;20424;-60
2021/06/21 05:52:58;;;;;;;11.20;7.32;;;;;;;13.41;100.00;100687.53;3578167;40;20037;-62
2021/06/21 05:55:25;;;;;;;11.50;6.82;;;;;;;13.39;100.00;100696.81;3579852;40;20072;-62
2021/06/21 05:57:53;;;;;;;12.93;6.95;;;;;;;13.33;100.00;100699.09;3579858;40;20055;-62
2021/06/21 06:00:21;;;;;;;13.98;6.85;;;;;;;13.41;100.00;100700.19;3580069;40;20054;-62
2021/06/21 06:02:48;;;;;;;10.75;6.57;;;;;;;13.45;100.00;100705.13;3578964;40;20061;-63
2021/06/21 06:05:15;;;;;;;9.82;6.88;;;;;;;13.45;100.00;100690.75;3579316;40;20064;-62
2021/06/21 06:07:42;;;;;;;10.73;6.72;;;;;;;13.44;100.00;100695.34;3579747;40;20324;-61
2021/06/21 06:10:11;;;;;;;10.85;7.63;;;;;;;13.36;100.00;100694.44;3576832;40;20053;-62
2021/06/21 06:12:37;;;;;;;12.73;7.72;;;;;;;13.46;100.00;100692.47;3580426;40;20059;-62
2021/06/21 06:15:05;;;;;;;12.25;7.40;;;;;;;13.43;100.00;100698.19;3579668;40;20077;-63
2021/06/21 06:17:32;;;;;;;12.30;6.28;;;;;;;13.36;100.00;100689.03;3582246;40;20388;-61
2021/06/21 06:19:59;;;;;;;13.52;7.22;;;;;;;13.37;100.00;100698.81;3581377;40;20052;-62
2021/06/21 06:22:25;;;;;;;13.88;6.95;;;;;;;13.39;100.00;100692.25;3580001;40;20056;-62
2021/06/21 06:24:52;;;;;;;10.38;6.90;;;;;;;13.50;100.00;100696.56;3581382;40;20065;-63
2021/06/21 06:27:20;;;;;;;12.10;7.80;;;;;;;13.48;100.00;100693.16;3581281;40;20025;-62
2021/06/21 06:29:46;;;;;;;11.30;7.03;;;;;;;13.36;100.00;100700.66;3575219;40;20423;-63
2021/06/21 06:32:12;;;;;;;10.48;6.95;;;;;;;13.44;100.00;100699.88;3578229;40;20105;-62
2021/06/21 06:34:39;;;;;;;12.05;7.35;;;;;;;13.50;100.00;100704.66;3578449;40;20082;-62
2021/06/21 06:37:06;;;;;;;11.25;7.15;;;;;;;13.47;100.00;100704.97;3582013;40;20414;-62
2021/06/21 06:39:33;;;;;;;13.05;7.25;;;;;;;13.44;100.00;100702.56;3581621;40;20113;-62
2021/06/21 06:41:59;;;;;;;12.93;8.20;;;;;;;13.56;100.00;100698.63;3581199;40;20093;-62
2021/06/21 06:44:27;;;;;;;8.60;6.53;;;;;;;13.49;100.00;100708.38;3579442;40;20075;-63
2021/06/21 06:46:54;;;;;;;14.77;7.55;;;;;;;13.39;100.00;100707.63;3579167;40;20072;-63
2021/06/21 06:49:20;;;;;;;10.65;7.50;;;;;;;13.51;100.00;100703.63;3577099;40;20051;-64
2021/06/21 06:51:50;;;;;;;12.93;7.82;;;;;;;13.64;100.00;100712.16;3579741;40;20044;-63
2021/06/21 06:54:25;;;;;;;9.68;7.38;;;;;;;13.62;100.00;100708.78;3575257;40;20041;-63
2021/06/21 06:57:00;;;;;;;10.02;7.30;;;;;;;13.48;100.00;100723.72;3578442;40;20053;-62
2021/06/21 06:59:32;;;;;;;10.75;7.03;;;;;;;13.49;100.00;100719.19;3576104;40;20307;-62
2021/06/21 07:02:00;;;;;;;12.10;8.32;;;;;;;13.59;100.00;100735.28;3578420;40;20052;-63
2021/06/21 07:04:27;;;;;;;12.45;7.55;;;;;;;13.58;100.00;100736.31;3576624;40;20051;-63
2021/06/21 07:06:54;;;;;;;12.68;7.40;;;;;;;13.56;100.00;100730.19;3579577;40;20384;-62
2021/06/21 07:09:20;;;;;;;15.45;7.85;;;;;;;13.58;100.00;100739.84;3577957;40;20134;-63
2021/06/21 07:11:50;;;;;;;9.82;6.90;;;;;;;13.57;100.00;100748.97;3580422;40;20400;-63
2021/06/21 07:14:17;;;;;;;10.25;6.72;;;;;;;13.58;100.00;100739.03;3577899;40;20059;-63
2021/06/21 07:16:45;;;;;;;10.48;6.85;;;;;;;13.71;100.00;100749.41;3580646;40;20059;-63
2021/06/21 07:19:12;;;;;;;8.82;7.22;;;;;;;13.71;100.00;100755.66;3579330;40;20060;-62
2021/06/21 07:21:38;;;;;;;12.27;8.05;;;;;;;13.76;100.00;100752.47;3576160;40;20067;-63
2021/06/21 07:24:06;;;;;;;10.70;6.78;;;;;;;13.72;100.00;100759.22;3578531;40;20060;-63
2021/06/21 07:26:33;;;;;;;9.65;7.50;;;;;;;13.80;100.00;100756.56;3578109;40;20044;-63
2021/06/21 07:28:59;;;;;;;11.48;7.18;;;;;;;13.86;100.00;100758.63;3579283;40;20045;-63
2021/06/21 07:31:26;;;;;;;9.48;7.60;;;;;;;13.85;100.00;100759.63;3577057;40;20096;-63
2021/06/21 07:33:53;;;;;;;10.70;7.25;;;;;;;13.81;100.00;100758.28;3579305;40;20438;-63
2021/06/21 07:39:12;;;;;;;13.32;7.93;;;;;;;13.80;100.00;100759.28;3571580;23;20059;-62
2021/06/21 07:41:39;;;;;;;13.38;8.48;;;;;;;13.78;100.00;100767.56;3592807;40;20046;-63
2021/06/21 07:44:05;;;;;;;11.80;7.65;;;;;;;13.92;100.00;100774.22;3592012;39;20047;-62
2021/06/21 07:46:32;;;;;;;10.57;7.57;;;;;;;13.88;100.00;100778.25;3592220;40;20580;-62
2021/06/21 07:49:01;;;;;;;9.98;6.53;;;;;;;13.83;100.00;100770.63;3591398;39;20048;-62
2021/06/21 07:51:30;;;;;;;11.53;6.97;;;;;;;13.82;100.00;100776.19;3590560;39;20125;-61
2021/06/21 07:53:56;;;;;;;10.27;6.95;;;;;;;13.80;100.00;100780.91;3590906;39;20040;-61
2021/06/21 07:56:23;;;;;;;12.18;6.80;;;;;;;13.78;100.00;100777.50;3590798;39;20048;-63
2021/06/21 07:58:50;;;;;;;10.40;7.30;;;;;;;13.90;100.00;100780.78;3589953;39;20101;-62
2021/06/21 08:01:17;;;;;;;10.25;6.65;;;;;;;13.93;100.00;100784.03;3590141;39;20044;-62
2021/06/21 08:03:45;;;;;;;12.57;5.90;;;;;;;13.76;100.00;100784.94;3591472;39;20077;-63
2021/06/21 08:06:13;;;;;;;9.25;6.10;;;;;;;13.79;100.00;100781.91;3591492;39;20038;-61
2021/06/21 08:08:40;;;;;;;9.75;6.65;;;;;;;13.92;100.00;100785.03;3590951;39;20052;-62
2021/06/21 08:11:08;;;;;;;8.85;5.78;;;;;;;14.02;100.00;100785.78;3590360;39;20049;-62
2021/06/21 08:13:34;;;;;;;7.90;6.45;;;;;;;13.97;100.00;100790.84;3591298;39;20123;-61
2021/06/21 08:16:01;;;;;;;9.00;5.80;;;;;;;13.96;100.00;100796.41;3591467;39;20056;-62
2021/06/21 08:18:28;;;;;;;13.15;6.68;;;;;;;13.94;100.00;100793.88;3591143;39;20057;-64
2021/06/21 08:20:54;;;;;;;11.48;6.35;;;;;;;13.94;100.00;100788.44;3591752;39;20040;-61
2021/06/21 08:23:23;;;;;;;9.68;5.85;;;;;;;13.97;100.00;100796.25;3591328;39;20050;-62
2021/06/21 08:25:50;;;;;;;8.13;5.85;;;;;;;14.01;100.00;100800.31;3592681;40;20145;-62
2021/06/21 08:28:16;;;;;;;8.15;6.20;;;;;;;13.97;100.00;100803.50;3591828;39;20051;-63
2021/06/21 08:30:45;;;;;;;7.45;4.68;;;;;;;13.97;100.00;100788.13;3593272;39;20032;-64
2021/06/21 08:33:11;;;;;;;6.53;5.25;;;;;;;13.90;100.00;100797.88;3592644;39;20062;-62
2021/06/21 08:35:38;;;;;;;8.07;5.50;;;;;;;13.95;100.00;100800.94;3592612;39;20661;-61
2021/06/21 08:38:04;;;;;;;9.00;5.90;;;;;;;14.01;100.00;100802.19;3591487;39;20418;-63
2021/06/21 08:40:33;;;;;;;8.40;5.28;;;;;;;14.15;100.00;100811.56;3592261;40;20056;-61
2021/06/21 08:43:00;;;;;;;10.60;6.00;;;;;;;14.10;100.00;100814.72;3592645;39;20393;-62
2021/06/21 08:45:29;;;;;;;9.75;5.65;;;;;;;14.08;100.00;100819.47;3591640;40;20064;-64
2021/06/21 08:47:55;;;;;;;8.57;5.50;;;;;;;14.12;100.00;100818.16;3595050;39;20407;-62
2021/06/21 08:50:22;;;;;;;8.15;4.72;;;;;;;14.20;100.00;100814.63;3596363;39;20054;-62
2021/06/21 08:55:38;;;;;;;9.20;5.28;;;;;;;14.21;100.00;100827.16;3617206;23;20335;-63
2021/06/21 08:58:04;;;;;;;9.82;6.00;;;;;;;14.11;100.00;100831.84;3590278;39;20063;-61
2021/06/21 09:00:31;;;;;;;10.40;6.18;;;;;;;14.24;100.00;100832.25;3590503;39;20092;-63
2021/06/21 09:03:00;;;;;;;9.38;5.45;;;;;;;14.23;100.00;100833.25;3589569;39;20036;-63
2021/06/21 09:05:27;;;;;;;;;;;;;;;14.19;100.00;100823.75;3590883;39;20048;-64
2021/06/21 09:08:02;;;;;;;7.80;5.10;;;;;;;14.17;100.00;100831.19;3589153;39;19936;-63
2021/06/21 09:10:30;;;;;;;4.97;4.47;;;;;;;14.17;100.00;100832.03;3588633;39;20085;-64
2021/06/21 09:13:10;;;;;;;7.03;4.65;;;;;;;14.17;100.00;100836.59;3590243;39;20036;-64
2021/06/21 09:15:39;;;;;;;7.68;5.07;;;;;;;14.24;100.00;100831.41;3589455;39;20636;-63
2021/06/21 09:18:28;;;;;;;4.95;4.35;;;;;;;14.39;100.00;100839.78;3590183;39;20425;-63
2021/06/21 09:21:27;;;;;;;7.82;4.57;;;;;;;14.30;100.00;100837.03;3590121;39;20404;-63
2021/06/21 09:23:55;;;;;;;6.47;4.50;;;;;;;14.43;100.00;100857.38;3589008;39;20046;-63
2021/06/21 09:26:23;;;;;;;7.78;4.60;;;;;;;14.55;100.00;100856.09;3588351;39;20104;-63
2021/06/21 09:28:52;;;;;;;7.32;4.43;;;;;;;14.32;100.00;100856.66;3589518;39;20503;-63
2021/06/21 09:31:19;;;;;;;7.93;4.00;;;;;;;14.32;100.00;100867.47;3588392;39;20055;-62
2021/06/21 09:33:45;;;;;;;9.05;4.85;;;;;;;14.22;100.00;100866.75;3589161;39;20047;-62
2021/06/21 09:36:25;;;;;;;7.65;4.50;;;;;;;14.13;100.00;100868.56;3590067;39;20076;-62
2021/06/21 09:39:20;;;;;;;6.88;4.25;;;;;;;14.24;100.00;100864.75;3589670;39;20056;-63
2021/06/21 09:42:08;;;;;;;8.90;4.55;;;;;;;14.29;100.00;100873.22;3589683;39;20037;-62
2021/06/21 09:44:38;;;;;;;6.57;4.20;;;;;;;14.31;100.00;100870.34;3591540;39;20272;-63
2021/06/21 09:47:26;;;;;;;8.80;3.90;;;;;;;14.45;100.00;100868.91;3591708;39;20080;-64
2021/06/21 09:50:14;;;;;;;5.73;3.90;;;;;;;14.27;100.00;100886.06;3591998;39;20326;-62
2021/06/21 09:52:49;;;;;;;8.15;3.88;;;;;;;14.23;100.00;100891.97;3591489;39;20044;-63
2021/06/21 09:55:32;;;;;;;7.70;4.15;;;;;;;14.17;100.00;100897.00;3591334;39;20114;-63
2021/06/21 09:58:10;;;;;;;9.02;4.07;;;;;;;14.06;100.00;100888.28;3589557;39;20466;-63
2021/06/21 10:00:40;;;;;;;5.93;3.83;;;;;;;13.96;100.00;100908.19;3590584;39;20072;-63
2021/06/21 10:03:09;;;;;;;7.97;4.10;;;;;;;13.96;100.00;100912.75;3590877;39;20066;-62
2021/06/21 10:05:39;;;;;;;10.13;4.10;;;;;;;13.94;100.00;100921.03;3591455;39;20082;-62
2021/06/21 10:08:06;;;;;;;9.85;3.70;;;;;;;14.05;100.00;100921.78;3589299;39;20036;-62
2021/06/21 10:10:34;;;;;;;7.30;3.70;;;;;;;14.15;100.00;100925.25;3588711;39;20326;-62
2021/06/21 10:13:01;;;;;;;7.10;4.18;;;;;;;14.14;100.00;100931.66;3588245;39;20326;-62
2021/06/21 10:15:27;;;;;;;8.02;4.32;;;;;;;14.17;100.00;100928.63;3588098;39;20373;-62
2021/06/21 10:17:55;;;;;;;6.95;4.13;;;;;;;14.46;100.00;100938.31;3589495;39;20040;-63
2021/06/21 10:20:22;;;;;;;7.43;3.90;;;;;;;14.42;100.00;100931.53;3588643;39;20142;-63
2021/06/21 10:22:48;;;;;;;8.15;4.28;;;;;;;14.49;100.00;100927.16;3588970;39;20049;-64
2021/06/21 10:25:15;;;;;;;7.72;3.60;;;;;;;14.58;100.00;100936.19;3588205;39;20056;-63
2021/06/21 10:27:44;;;;;;;5.00;3.95;;;;;;;14.58;100.00;100936.19;3589514;39;20048;-63
2021/06/21 10:30:13;;;;;;;6.78;4.57;;;;;;;14.62;100.00;100943.00;3589480;39;20040;-63
2021/06/21 10:35:39;;;;;;;5.45;3.45;;;;;;;14.59;100.00;100955.00;3622463;23;20422;-62
2021/06/21 10:38:06;;;;;;;5.93;3.58;;;;;;;14.58;100.00;100958.69;3589433;39;20051;-63
2021/06/21 10:40:54;;;;;;;6.68;4.10;;;;;;;14.57;100.00;100957.00;3587965;39;20395;-62
2021/06/21 10:43:49;;;;;;;6.85;4.18;;;;;;;14.57;100.00;100959.69;3588063;39;20051;-62
2021/06/21 10:46:23;;;;;;;7.85;4.30;;;;;;;14.63;100.00;100956.38;3588431;39;20145;-63
2021/06/21 10:49:35;;;;;;;9.20;4.30;;;;;;;14.69;100.00;100966.59;3588872;40;20065;-63
2021/06/21 10:52:40;;;;;;;6.72;3.38;;;;;;;14.80;100.00;100972.75;3589443;39;20051;-62
2021/06/21 10:55:33;;;;;;;5.05;3.70;;;;;;;14.73;100.00;100972.53;3588724;39;20040;-62
2021/06/21 10:58:02;;;;;;;5.13;3.42;;;;;;;14.70;100.00;100968.28;3590172;39;20080;-62
2021/06/21 11:00:32;;;;;;;6.25;3.60;;;;;;;14.75;100.00;100980.50;3592848;39;20078;-63
2021/06/21 11:02:59;;;;;;;6.75;3.38;;;;;;;14.90;100.00;100973.47;3593254;39;20386;-63
2021/06/21 11:05:34;;;;;;;6.28;3.00;;;;;;;14.98;100.00;100973.50;3591855;39;20318;-62
2021/06/21 11:08:17;;;;;;;6.15;3.55;;;;;;;14.98;100.00;100976.22;3590367;39;20059;-63
2021/06/21 11:10:45;;;;;;;4.93;2.95;;;;;;;15.17;100.00;100968.84;3592263;39;20593;-63
2021/06/21 11:13:43;;;;;;;6.82;3.42;;;;;;;15.14;100.00;100959.19;3591629;39;20447;-62
2021/06/21 11:16:25;;;;;;;7.38;3.10;;;;;;;15.12;100.00;100957.63;3589569;39;20044;-63
2021/06/21 11:19:31;;;;;;;6.90;3.25;;;;;;;15.13;100.00;100946.63;3644296;22;20056;-63
2021/06/21 11:21:59;;;;;;;5.35;2.88;;;;;;;15.41;100.00;100955.38;3573137;39;20045;-64
2021/06/21 11:27:43;;;;;;;4.88;2.80;;;;;;;15.10;100.00;100952.38;3629511;22;20129;-63
2021/06/21 11:30:25;;;;;;;5.43;2.80;;;;;;;15.11;100.00;100945.13;3592494;39;20048;-62
2021/06/21 11:32:58;;;;;;;4.65;2.83;;;;;;;15.04;100.00;100947.63;3592690;39;20094;-62
2021/06/21 11:35:58;;;;;;;6.25;2.75;;;;;;;15.15;100.00;100949.16;3591576;39;20067;-63